MSC Orchestra — 3EJF3 — position and weather

sailwx.info

Track history (hours):
 
Tides and Currents Weather Stations Pressure Air Temp Water Temp Dewpoint Dewpoint Depression Visibility Wind Speed Wind Dir Waves Ship Positions

MSC Orchestra

Last reported at 2014-Aug-29 17:33 UTC. Time now 2014-Aug-29 18:23 UTC.
Position N 57°15' E 011°37'.

Length 292 m; draft 7.8 m.

Type: Ship. MMSI: 372497000.

Date/timePositionNaut miles runAvg speedWind from/ knotsBaromVisibWave heightAir tempDewpointWater temp
2014-Aug-29 17:33N 57°15' E 011°37'1717.2
2014-Aug-29 16:34N 57°32' E 011°36'1111.5
2014-Aug-29 15:33N 57°41' E 011°49'1 0.8
2014-Aug-29 14:32N 57°42' E 011°49'0 0.0
2014-Aug-29 13:31N 57°42' E 011°49'0 0.0
2014-Aug-29 12:31N 57°42' E 011°49'0 0.0
2014-Aug-29 11:33N 57°42' E 011°49'0 0.0
2014-Aug-29 10:33N 57°42' E 011°49'0 0.0
2014-Aug-29 09:30N 57°42' E 011°49'0 0.0
2014-Aug-29 08:29N 57°42' E 011°49'0 0.0
2014-Aug-29 07:32N 57°42' E 011°49'0 0.0
2014-Aug-29 06:31N 57°42' E 011°49'1 1.2
2014-Aug-29 05:33N 57°41' E 011°48'1010.5
2014-Aug-29 04:33N 57°33' E 011°34'1615.9
2014-Aug-29 03:33N 57°43' E 011°11'1717.5
2014-Aug-29 02:33N 57°55' E 010°47'1616.2
2014-Aug-29 01:33N 57°56' E 010°16'2318.1
2014-Aug-29 00:18N 57°52' E 009°34'1518.5
2014-Aug-28 23:30N 57°49' E 009°07'2119.0
2014-Aug-28 22:23N 57°45' E 008°28'1719.9
2014-Aug-28 21:31N 57°42' E 007°56'7318.4
2014-Aug-28 17:33N 58°05' E 005°46'2319.9
2014-Aug-28 16:24N 58°20' E 005°13'1619.2
2014-Aug-28 15:33N 58°36' E 005°17'1818.2
2014-Aug-28 14:33N 58°53' E 005°31'9 8.6
2014-Aug-28 13:33N 58°60' E 005°42'1 1.5
2014-Aug-28 12:33N 58°58' E 005°44'0 0.0
2014-Aug-28 11:33N 58°58' E 005°44'0 0.0
2014-Aug-28 10:32N 58°58' E 005°44'0 0.0
2014-Aug-28 09:32N 58°58' E 005°44'0 0.0
2014-Aug-28 08:31N 58°58' E 005°44'0 0.0
2014-Aug-28 07:31N 58°58' E 005°44'0 0.1
2014-Aug-28 06:33N 58°59' E 005°44'5 5.3
2014-Aug-28 05:34N 59°02' E 005°37'1010.0
2014-Aug-28 04:33N 59°04' E 005°17'  
2014-Aug-25 03:33N 58°42' E 005°04'1514.3
2014-Aug-25 02:31N 58°29' E 005°16'1313.7
2014-Aug-25 01:33N 58°18' E 005°31'1413.9
2014-Aug-25 00:33N 58°09' E 005°51'7413.5
2014-Aug-24 19:04N 57°56' E 008°09'9 0.9
2014-Aug-24 09:33N 58°04' E 008°15'2221.7
2014-Aug-24 08:33N 58°10' E 008°54'3919.6
2014-Aug-24 06:33N 57°57' E 010°05'1919.5
2014-Aug-24 05:33N 57°50' E 010°38'2019.6
2014-Aug-24 04:33N 57°37' E 011°07'2019.8
2014-Aug-24 03:33N 57°22' E 011°30'176 7.3
2014-Aug-23 03:33N 54°26' E 011°47'1616.4
2014-Aug-23 02:33N 54°33' E 012°12'1919.3
2014-Aug-23 01:33N 54°46' E 012°38'2220.2
2014-Aug-23 00:29N 54°53' E 013°13'1820.0
2014-Aug-22 23:33N 54°60' E 013°43'2020.2
2014-Aug-22 22:33N 55°10' E 014°13'2121.2
2014-Aug-22 21:33N 55°27' E 014°36'2121.2
2014-Aug-22 20:33N 55°37' E 015°09'2121.1
2014-Aug-22 19:33N 55°48' E 015°42'2120.7
2014-Aug-22 18:33N 55°58' E 016°14'31320.7
2014-Aug-22 03:24N 59°37' E 023°14'1821.1
2014-Aug-22 02:33N 59°42' E 023°48'2121.1
2014-Aug-22 01:33N 59°47' E 024°29'6220.5
2014-Aug-21 22:33N 60°00' E 026°29'2819.5
2014-Aug-21 21:08N 60°05' E 027°23'7916.7
2014-Aug-21 16:23N 59°55' E 030°01'6 6.7
2014-Aug-21 15:33N 59°57' E 030°11'0 0.1
2014-Aug-21 14:33N 59°57' E 030°11'0 0.0
2014-Aug-21 13:32N 59°57' E 030°11'0 0.0
2014-Aug-21 12:32N 59°57' E 030°11'0 0.0
2014-Aug-21 11:32N 59°57' E 030°11'0 0.0
2014-Aug-21 10:31N 59°57' E 030°11'0 0.0
2014-Aug-21 09:28N 59°57' E 030°11'0 0.0
2014-Aug-21 08:33N 59°57' E 030°11'0 0.0
2014-Aug-21 07:33N 59°57' E 030°11'0 0.0
2014-Aug-21 06:32N 59°57' E 030°11'0 0.0
2014-Aug-21 05:26N 59°57' E 030°11'0 0.0
2014-Aug-21 04:32N 59°57' E 030°11'0 0.0
2014-Aug-21 03:33N 59°57' E 030°11'0 0.0
2014-Aug-21 02:31N 59°57' E 030°11'3 3.0
2014-Aug-21 01:33N 59°56' E 030°06'9810.9
2014-Aug-20 16:33N 59°59' E 026°50'1611.8
2014-Aug-20 15:10N 59°57' E 026°18'4311.4
2014-Aug-20 11:24N 60°04' E 024°53'5 5.7
2014-Aug-20 10:33N 60°09' E 024°55'0 0.0
2014-Aug-20 09:17N 60°09' E 024°55'0 0.0
2014-Aug-20 08:32N 60°09' E 024°55'0 0.0
2014-Aug-20 07:31N 60°09' E 024°55'0 0.0
2014-Aug-20 06:31N 60°09' E 024°55'0 0.0
2014-Aug-20 05:33N 60°09' E 024°55'0 0.0
2014-Aug-20 04:30N 60°09' E 024°55'0 0.2
2014-Aug-20 03:33N 60°09' E 024°54'36 8.6
2014-Aug-19 23:18N 59°41' E 024°08'1013.2
2014-Aug-19 22:33N 59°38' E 023°50'1312.9
2014-Aug-19 21:33N 59°34' E 023°26'  
Track history (hours):
 
Tides and Currents Weather Stations Pressure Air Temp Water Temp Dewpoint Dewpoint Depression Visibility Wind Speed Wind Dir Waves Ship Positions

MSC Orchestra

Last reported at 2014-Aug-29 17:33 UTC. Time now 2014-Aug-29 18:23 UTC.
Position N 57°15' E 011°37'.

Length 292 m; draft 7.8 m.

Type: Ship. MMSI: 372497000.

Date/timePositionNaut miles runAvg speedWind from/ knotsBaromVisibWave heightAir tempDewpointWater temp
2014-Aug-29 17:33N 57°15' E 011°37'1717.2
2014-Aug-29 16:34N 57°32' E 011°36'1111.5
2014-Aug-29 15:33N 57°41' E 011°49'1 0.8
2014-Aug-29 14:32N 57°42' E 011°49'0 0.0
2014-Aug-29 13:31N 57°42' E 011°49'0 0.0
2014-Aug-29 12:31N 57°42' E 011°49'0 0.0
2014-Aug-29 11:33N 57°42' E 011°49'0 0.0
2014-Aug-29 10:33N 57°42' E 011°49'0 0.0
2014-Aug-29 09:30N 57°42' E 011°49'0 0.0
2014-Aug-29 08:29N 57°42' E 011°49'0 0.0
2014-Aug-29 07:32N 57°42' E 011°49'0 0.0
2014-Aug-29 06:31N 57°42' E 011°49'1 1.2
2014-Aug-29 05:33N 57°41' E 011°48'1010.5
2014-Aug-29 04:33N 57°33' E 011°34'1615.9
2014-Aug-29 03:33N 57°43' E 011°11'1717.5
2014-Aug-29 02:33N 57°55' E 010°47'1616.2
2014-Aug-29 01:33N 57°56' E 010°16'2318.1
2014-Aug-29 00:18N 57°52' E 009°34'1518.5
2014-Aug-28 23:30N 57°49' E 009°07'2119.0
2014-Aug-28 22:23N 57°45' E 008°28'1719.9
2014-Aug-28 21:31N 57°42' E 007°56'7318.4
2014-Aug-28 17:33N 58°05' E 005°46'2319.9
2014-Aug-28 16:24N 58°20' E 005°13'1619.2
2014-Aug-28 15:33N 58°36' E 005°17'1818.2
2014-Aug-28 14:33N 58°53' E 005°31'9 8.6
2014-Aug-28 13:33N 58°60' E 005°42'1 1.5
2014-Aug-28 12:33N 58°58' E 005°44'0 0.0
2014-Aug-28 11:33N 58°58' E 005°44'0 0.0
2014-Aug-28 10:32N 58°58' E 005°44'0 0.0
2014-Aug-28 09:32N 58°58' E 005°44'0 0.0
2014-Aug-28 08:31N 58°58' E 005°44'0 0.0
2014-Aug-28 07:31N 58°58' E 005°44'0 0.1
2014-Aug-28 06:33N 58°59' E 005°44'5 5.3
2014-Aug-28 05:34N 59°02' E 005°37'1010.0
2014-Aug-28 04:33N 59°04' E 005°17'  
2014-Aug-25 03:33N 58°42' E 005°04'1514.3
2014-Aug-25 02:31N 58°29' E 005°16'1313.7
2014-Aug-25 01:33N 58°18' E 005°31'1413.9
2014-Aug-25 00:33N 58°09' E 005°51'7413.5
2014-Aug-24 19:04N 57°56' E 008°09'9 0.9
2014-Aug-24 09:33N 58°04' E 008°15'2221.7
2014-Aug-24 08:33N 58°10' E 008°54'3919.6
2014-Aug-24 06:33N 57°57' E 010°05'1919.5
2014-Aug-24 05:33N 57°50' E 010°38'2019.6
2014-Aug-24 04:33N 57°37' E 011°07'2019.8
2014-Aug-24 03:33N 57°22' E 011°30'176 7.3
2014-Aug-23 03:33N 54°26' E 011°47'1616.4
2014-Aug-23 02:33N 54°33' E 012°12'1919.3
2014-Aug-23 01:33N 54°46' E 012°38'2220.2
2014-Aug-23 00:29N 54°53' E 013°13'1820.0
2014-Aug-22 23:33N 54°60' E 013°43'2020.2
2014-Aug-22 22:33N 55°10' E 014°13'2121.2
2014-Aug-22 21:33N 55°27' E 014°36'2121.2
2014-Aug-22 20:33N 55°37' E 015°09'2121.1
2014-Aug-22 19:33N 55°48' E 015°42'2120.7
2014-Aug-22 18:33N 55°58' E 016°14'31320.7
2014-Aug-22 03:24N 59°37' E 023°14'1821.1
2014-Aug-22 02:33N 59°42' E 023°48'2121.1
2014-Aug-22 01:33N 59°47' E 024°29'6220.5
2014-Aug-21 22:33N 60°00' E 026°29'2819.5
2014-Aug-21 21:08N 60°05' E 027°23'7916.7
2014-Aug-21 16:23N 59°55' E 030°01'6 6.7
2014-Aug-21 15:33N 59°57' E 030°11'0 0.1
2014-Aug-21 14:33N 59°57' E 030°11'0 0.0
2014-Aug-21 13:32N 59°57' E 030°11'0 0.0
2014-Aug-21 12:32N 59°57' E 030°11'0 0.0
2014-Aug-21 11:32N 59°57' E 030°11'0 0.0
2014-Aug-21 10:31N 59°57' E 030°11'0 0.0
2014-Aug-21 09:28N 59°57' E 030°11'0 0.0
2014-Aug-21 08:33N 59°57' E 030°11'0 0.0
2014-Aug-21 07:33N 59°57' E 030°11'0 0.0
2014-Aug-21 06:32N 59°57' E 030°11'0 0.0
2014-Aug-21 05:26N 59°57' E 030°11'0 0.0
2014-Aug-21 04:32N 59°57' E 030°11'0 0.0
2014-Aug-21 03:33N 59°57' E 030°11'0 0.0
2014-Aug-21 02:31N 59°57' E 030°11'3 3.0
2014-Aug-21 01:33N 59°56' E 030°06'9810.9
2014-Aug-20 16:33N 59°59' E 026°50'1611.8
2014-Aug-20 15:10N 59°57' E 026°18'4311.4
2014-Aug-20 11:24N 60°04' E 024°53'5 5.7
2014-Aug-20 10:33N 60°09' E 024°55'0 0.0
2014-Aug-20 09:17N 60°09' E 024°55'0 0.0
2014-Aug-20 08:32N 60°09' E 024°55'0 0.0
2014-Aug-20 07:31N 60°09' E 024°55'0 0.0
2014-Aug-20 06:31N 60°09' E 024°55'0 0.0
2014-Aug-20 05:33N 60°09' E 024°55'0 0.0
2014-Aug-20 04:30N 60°09' E 024°55'0 0.2
2014-Aug-20 03:33N 60°09' E 024°54'36 8.6
2014-Aug-19 23:18N 59°41' E 024°08'1013.2
2014-Aug-19 22:33N 59°38' E 023°50'1312.9
2014-Aug-19 21:33N 59°34' E 023°26'  

Dump ship's entire track history